Aviation Digital Data Service (ADDS)

Output produced by TAFs form (0643 UTC 18 February 2018)
found at http://www.aviationweather.gov/adds/tafs/
 
METAR text: RJOT 180600Z 31007KT 280V340 9999 FEW030 07/M05 Q1021
Conditions at: RJOT (TAKAMATSU AIRPOR, JP) observed 0600 UTC 18 February 2018
Temperature: 7.0°C (45°F)
Dewpoint: -5.0°C (23°F) [RH = 42%]
Pressure (altimeter): 30.15 inches Hg (1021.0 mb)
Winds: from the NW (310 degrees) at 8 MPH (7 knots; 3.6 m/s)
Visibility: 6 or more miles (10+ km)
Ceiling: at least 12,000 feet AGL
Clouds: few clouds at 3000 feet AGL
Weather: no significant weather observed at this time

Forecast for: RJOT (TAKAMATSU AIRPOR, JP)
Text: TAF RJOT 180505Z 1806/1912 33006KT 9999 FEW030
Forecast period: 0600 to 0800 UTC 18 February 2018
Forecast type: FROM: standard forecast or significant change
Winds: from the NNW (330 degrees) at 7 MPH (6 knots; 3.1 m/s)
Visibility: 6 or more miles (10+ km)
Clouds: few clouds at 3000 feet AGL
Weather: no significant weather forecast for this period
Text: BECMG 1808/1810 15005KT
Forecast period: 0800 UTC 18 February 2018 to 1200 UTC 19 February 2018
Forecast type: BECOMING: Conditions expected to become as follows by 1000 UTC 18 February 2018
Winds: from the SSE (150 degrees) at 6 MPH (5 knots; 2.6 m/s)
Visibility: 6 or more miles (10+ km)
Clouds: few clouds at 3000 feet AGL
Weather: no significant weather forecast for this period